createdAt,value
2019-02-25T00:02:28.226Z,76.68
2019-02-25T00:04:55.310Z,76.74
2019-02-25T00:07:32.380Z,76.76
2019-02-25T00:09:59.588Z,76.79
2019-02-25T00:12:35.001Z,76.79
2019-02-25T00:15:02.271Z,76.79
2019-02-25T00:17:32.251Z,76.77
2019-02-25T00:19:59.934Z,76.75
2019-02-25T00:22:27.330Z,76.77
2019-02-25T00:24:54.496Z,76.77
2019-02-25T00:27:23.942Z,76.73
2019-02-25T00:29:59.381Z,76.74
2019-02-25T00:32:26.434Z,76.72
2019-02-25T00:34:53.496Z,76.65
2019-02-25T00:37:20.558Z,76.59
2019-02-25T00:39:47.613Z,76.55
2019-02-25T00:42:14.668Z,76.43
2019-02-25T00:44:41.725Z,76.31
2019-02-25T00:47:08.799Z,76.22
2019-02-25T00:49:35.864Z,76.09
2019-02-25T00:52:03.067Z,75.76
2019-02-25T00:54:30.103Z,75.48
2019-02-25T00:56:57.174Z,74.95
2019-02-25T00:59:24.269Z,74.52
2019-02-25T01:01:51.365Z,74.34
2019-02-25T01:04:18.483Z,74.20
2019-02-25T01:06:45.545Z,74.11
2019-02-25T01:09:12.596Z,74.23
2019-02-25T01:11:39.673Z,74.34
2019-02-25T01:14:06.735Z,74.49
2019-02-25T01:16:33.795Z,74.53
2019-02-25T01:19:00.856Z,74.43
2019-02-25T01:21:27.935Z,74.36
2019-02-25T01:23:55.002Z,74.30
2019-02-25T01:26:22.066Z,74.16
2019-02-25T01:28:49.130Z,73.90
2019-02-25T01:31:16.199Z,73.60
2019-02-25T01:33:43.270Z,73.14
2019-02-25T01:36:10.348Z,72.84
2019-02-25T01:38:37.407Z,72.65
2019-02-25T01:41:04.522Z,72.47
2019-02-25T01:43:31.574Z,72.42
2019-02-25T01:45:58.651Z,72.30
2019-02-25T01:48:25.712Z,72.19
2019-02-25T01:50:52.767Z,72.20
2019-02-25T01:53:19.828Z,72.23
2019-02-25T01:55:46.893Z,72.17
2019-02-25T01:58:13.952Z,72.19
2019-02-25T02:00:41.003Z,72.24
2019-02-25T02:03:09.199Z,72.40
2019-02-25T02:05:36.258Z,72.54
2019-02-25T02:08:03.320Z,72.62
2019-02-25T02:10:30.402Z,72.74
2019-02-25T02:12:57.462Z,72.90
2019-02-25T02:15:24.511Z,73.02
2019-02-25T02:17:51.580Z,73.13
2019-02-25T02:20:18.660Z,73.30
2019-02-25T02:22:45.739Z,73.41
2019-02-25T02:25:13.017Z,73.50
2019-02-25T02:27:40.085Z,73.57
2019-02-25T02:30:10.222Z,73.67
2019-02-25T02:32:37.291Z,73.86
2019-02-25T02:35:04.530Z,73.94
2019-02-25T02:37:31.619Z,74.05
2019-02-25T02:39:58.700Z,74.13
2019-02-25T02:42:25.779Z,74.25
2019-02-25T02:45:22.538Z,74.39
2019-02-25T02:48:01.980Z,74.47
2019-02-25T02:50:29.090Z,74.46
2019-02-25T02:52:56.140Z,74.56
2019-02-25T02:55:23.199Z,74.69
2019-02-25T02:57:50.281Z,74.77
2019-02-25T03:00:19.179Z,74.94
2019-02-25T03:02:46.281Z,75.06
2019-02-25T03:05:14.915Z,75.05
2019-02-25T03:07:41.981Z,75.11
2019-02-25T03:10:10.249Z,75.12
2019-02-25T03:12:37.305Z,75.11
2019-02-25T03:15:06.248Z,75.08
2019-02-25T03:17:34.197Z,75.08
2019-02-25T03:20:01.281Z,74.98
2019-02-25T03:22:28.427Z,74.92
2019-02-25T03:24:55.525Z,74.72
2019-02-25T03:27:22.586Z,74.67
2019-02-25T03:29:49.653Z,74.54
2019-02-25T03:32:16.733Z,74.53
2019-02-25T03:34:43.814Z,74.50
2019-02-25T03:37:10.872Z,74.28
2019-02-25T03:39:37.975Z,73.97
2019-02-25T03:42:05.042Z,73.68
2019-02-25T03:44:32.113Z,73.15
2019-02-25T03:46:59.180Z,73.02
2019-02-25T03:49:26.257Z,72.81
2019-02-25T03:51:53.320Z,72.57
2019-02-25T03:54:20.375Z,72.18
2019-02-25T03:56:47.438Z,71.49
2019-02-25T03:59:14.499Z,70.94
2019-02-25T04:01:41.556Z,70.61
2019-02-25T04:04:08.931Z,70.24
2019-02-25T04:06:35.999Z,69.78
2019-02-25T04:09:04.505Z,69.66
2019-02-25T04:11:31.562Z,69.18
2019-02-25T04:13:58.626Z,68.91
2019-02-25T04:16:25.687Z,68.61
2019-02-25T04:18:52.770Z,68.32
2019-02-25T04:21:19.884Z,68.13
2019-02-25T04:23:46.960Z,67.81
2019-02-25T04:26:14.024Z,67.42
2019-02-25T04:28:41.096Z,67.12
2019-02-25T04:31:08.169Z,66.70
2019-02-25T04:33:35.246Z,66.75
2019-02-25T04:36:02.316Z,66.98
2019-02-25T04:38:29.396Z,67.02
2019-02-25T04:40:56.457Z,66.94
2019-02-25T04:43:23.519Z,67.19
2019-02-25T04:45:50.592Z,67.29
2019-02-25T04:48:17.668Z,67.57
2019-02-25T04:50:44.764Z,67.69
2019-02-25T04:53:11.827Z,67.80
2019-02-25T04:55:38.897Z,67.84
2019-02-25T04:58:05.955Z,67.72
2019-02-25T05:00:33.033Z,68.13
2019-02-25T05:03:00.335Z,68.37
2019-02-25T05:05:27.398Z,68.19
2019-02-25T05:07:54.476Z,67.80
2019-02-25T05:10:21.544Z,67.76
2019-02-25T05:12:54.234Z,67.99
2019-02-25T05:15:24.051Z,67.88
2019-02-25T05:17:51.147Z,67.94
2019-02-25T05:20:18.214Z,68.00
2019-02-25T05:22:45.279Z,68.12
2019-02-25T05:25:12.360Z,68.27
2019-02-25T05:27:39.414Z,68.36
2019-02-25T05:30:08.607Z,68.53
2019-02-25T05:32:35.896Z,68.90
2019-02-25T05:35:03.259Z,69.09
2019-02-25T05:37:30.339Z,69.27
2019-02-25T05:39:57.403Z,69.52
2019-02-25T05:42:24.463Z,69.58
2019-02-25T05:44:51.555Z,69.53
2019-02-25T05:47:18.625Z,69.44
2019-02-25T05:49:45.702Z,69.12
2019-02-25T05:52:12.771Z,68.61
2019-02-25T05:54:39.847Z,68.46
2019-02-25T05:57:06.909Z,68.05
2019-02-25T05:59:33.976Z,67.70
2019-02-25T06:02:01.025Z,67.41
2019-02-25T06:04:28.093Z,67.44
2019-02-25T06:06:55.168Z,67.55
2019-02-25T06:09:22.358Z,67.25
2019-02-25T06:11:50.568Z,67.18
2019-02-25T06:14:17.660Z,67.12
2019-02-25T06:16:44.716Z,67.06
2019-02-25T06:21:32.008Z,67.26
2019-02-25T06:23:59.072Z,67.15
2019-02-25T06:26:26.152Z,67.30
2019-02-25T06:28:53.217Z,67.46
2019-02-25T06:31:20.283Z,67.46
2019-02-25T06:33:47.620Z,67.60
2019-02-25T06:36:14.827Z,67.63
2019-02-25T06:38:41.911Z,67.49
2019-02-25T06:41:08.964Z,67.65
2019-02-25T06:43:36.025Z,67.74
2019-02-25T06:46:03.103Z,67.67
2019-02-25T06:48:30.166Z,67.54
2019-02-25T06:50:57.223Z,67.38
2019-02-25T06:53:24.322Z,67.50
2019-02-25T06:55:51.398Z,67.34
2019-02-25T06:58:18.477Z,67.48
2019-02-25T07:00:45.542Z,67.69
2019-02-25T07:03:12.619Z,67.53
2019-02-25T07:06:11.362Z,67.47
2019-02-25T07:08:53.949Z,67.46
2019-02-25T07:11:43.527Z,67.11
2019-02-25T07:14:23.172Z,67.15
2019-02-25T07:17:08.399Z,67.00
2019-02-25T07:20:07.322Z,66.91
2019-02-25T07:22:56.855Z,66.91
2019-02-25T07:25:35.945Z,66.66
2019-02-25T07:28:36.629Z,66.47
2019-02-25T07:31:21.031Z,66.61
2019-02-25T07:34:04.686Z,66.08
2019-02-25T07:36:49.858Z,65.64
2019-02-25T07:39:39.437Z,65.45
2019-02-25T07:42:15.415Z,64.85
2019-02-25T07:45:08.154Z,65.13
2019-02-25T07:48:03.796Z,64.99
2019-02-25T07:50:47.618Z,64.71
2019-02-25T07:53:33.014Z,64.07
2019-02-25T07:56:09.651Z,63.84
2019-02-25T07:59:05.381Z,63.11
2019-02-25T08:01:56.109Z,62.15
2019-02-25T08:04:45.512Z,61.54
2019-02-25T08:07:26.299Z,61.12
2019-02-25T08:10:18.717Z,60.72
2019-02-25T08:12:55.773Z,60.76
2019-02-25T08:15:44.406Z,60.12
2019-02-25T08:18:22.716Z,59.73
2019-02-25T08:21:09.347Z,59.56
2019-02-25T08:23:54.623Z,59.30
2019-02-25T08:26:50.486Z,58.99
2019-02-25T08:29:49.204Z,58.90
2019-02-25T08:32:37.053Z,59.22
2019-02-25T08:35:30.464Z,59.24
2019-02-25T08:38:26.943Z,59.02
2019-02-25T08:41:20.639Z,59.36
2019-02-25T08:44:07.271Z,59.16
2019-02-25T08:46:52.794Z,58.72
2019-02-25T08:49:23.450Z,58.67
2019-02-25T08:51:50.539Z,58.84
2019-02-25T08:54:17.717Z,58.57
2019-02-25T08:56:44.759Z,58.58
2019-02-25T08:59:11.823Z,58.07
2019-02-25T09:01:38.887Z,58.21
2019-02-25T09:04:05.980Z,58.46
2019-02-25T09:06:33.030Z,58.60
2019-02-25T09:09:00.089Z,57.76
2019-02-25T09:11:27.161Z,57.81
2019-02-25T09:13:54.228Z,58.00
2019-02-25T09:16:21.297Z,58.30
2019-02-25T09:18:48.348Z,58.41
2019-02-25T09:23:54.599Z,58.49
2019-02-25T09:26:21.667Z,58.85
2019-02-25T09:28:48.986Z,59.41
2019-02-25T09:31:16.051Z,59.53
2019-02-25T09:33:43.140Z,58.34
2019-02-25T09:36:10.249Z,58.57
2019-02-25T09:38:37.323Z,57.61
2019-02-25T09:41:04.399Z,57.94
2019-02-25T09:43:31.484Z,57.99
2019-02-25T09:45:58.544Z,57.78
2019-02-25T09:48:25.608Z,57.71
2019-02-25T09:50:52.690Z,58.09
2019-02-25T09:53:19.749Z,58.24
2019-02-25T09:55:46.806Z,58.21
2019-02-25T09:58:13.877Z,57.71
2019-02-25T10:00:40.948Z,57.27
2019-02-25T10:03:08.010Z,57.55
2019-02-25T10:05:35.065Z,56.21
2019-02-25T10:08:02.208Z,56.45
2019-02-25T10:10:29.272Z,55.97
2019-02-25T10:12:56.339Z,56.23
2019-02-25T10:15:23.472Z,56.13
2019-02-25T10:17:50.532Z,55.58
2019-02-25T10:20:17.614Z,54.80
2019-02-25T10:22:44.760Z,54.94
2019-02-25T10:25:11.960Z,54.53
2019-02-25T10:27:39.132Z,54.47
2019-02-25T10:30:07.589Z,54.16
2019-02-25T10:32:34.655Z,54.12
2019-02-25T10:35:01.727Z,53.97
2019-02-25T10:37:28.805Z,53.83
2019-02-25T10:39:55.879Z,53.94
2019-02-25T10:42:22.953Z,52.99
2019-02-25T10:44:50.011Z,52.31
2019-02-25T10:47:19.144Z,52.73
2019-02-25T10:49:46.116Z,51.78
2019-02-25T10:52:14.962Z,52.02
2019-02-25T10:54:42.159Z,52.25
2019-02-25T10:57:13.135Z,51.85
2019-02-25T10:59:59.308Z,50.52
2019-02-25T11:02:26.369Z,50.67
2019-02-25T11:04:54.022Z,50.93
2019-02-25T11:07:22.415Z,50.36
2019-02-25T11:09:56.827Z,50.35
2019-02-25T11:12:25.730Z,50.03
2019-02-25T11:14:52.874Z,50.41
2019-02-25T11:17:20.873Z,50.63
2019-02-25T11:19:48.895Z,50.91
2019-02-25T11:22:16.434Z,50.60
2019-02-25T11:24:43.643Z,50.86
2019-02-25T11:27:10.716Z,50.55
2019-02-25T11:29:39.565Z,51.19
2019-02-25T11:32:11.727Z,50.92
2019-02-25T11:34:39.885Z,50.81
2019-02-25T11:37:07.203Z,51.00
2019-02-25T11:39:34.972Z,51.38
2019-02-25T11:42:05.533Z,51.41
2019-02-25T11:44:32.482Z,51.07
2019-02-25T11:46:59.559Z,51.17
2019-02-25T11:49:32.813Z,51.27
2019-02-25T11:51:59.916Z,51.27
2019-02-25T11:54:27.086Z,51.42
2019-02-25T11:56:54.284Z,51.35
2019-02-25T11:59:21.355Z,51.49
2019-02-25T12:01:53.691Z,51.32
2019-02-25T12:04:20.777Z,50.47
2019-02-25T12:06:56.722Z,50.06
2019-02-25T12:09:23.811Z,49.94
2019-02-25T12:11:50.889Z,50.00
2019-02-25T12:14:19.131Z,50.69
2019-02-25T12:16:46.184Z,50.72
2019-02-25T12:19:17.890Z,50.73
2019-02-25T12:21:42.420Z,50.88
2019-02-25T12:24:09.496Z,50.40
2019-02-25T12:26:39.028Z,49.90
2019-02-25T12:29:10.744Z,49.53
2019-02-25T12:31:35.098Z,49.07
2019-02-25T12:34:02.167Z,49.47
2019-02-25T12:36:29.243Z,49.58
2019-02-25T12:38:56.303Z,49.26
2019-02-25T12:41:23.380Z,49.50
2019-02-25T12:43:50.449Z,49.37
2019-02-25T12:46:17.515Z,49.59
2019-02-25T12:48:44.582Z,49.76
2019-02-25T12:51:11.655Z,49.96
2019-02-25T12:53:38.715Z,49.77
2019-02-25T12:56:05.784Z,49.44
2019-02-25T12:58:32.847Z,49.65
2019-02-25T13:00:59.915Z,49.22
2019-02-25T13:03:26.993Z,48.81
2019-02-25T13:05:54.077Z,49.00
2019-02-25T13:08:21.131Z,49.40
2019-02-25T13:10:48.201Z,49.10
2019-02-25T13:13:15.262Z,48.99
2019-02-25T13:15:42.339Z,48.99
2019-02-25T13:18:09.425Z,48.43
2019-02-25T13:20:36.497Z,49.03
2019-02-25T13:23:03.647Z,49.10
2019-02-25T13:25:30.739Z,49.28
2019-02-25T13:27:58.822Z,49.48
2019-02-25T13:30:26.572Z,49.32
2019-02-25T13:32:53.651Z,49.38
2019-02-25T13:35:20.730Z,49.69
2019-02-25T13:37:47.795Z,49.74
2019-02-25T13:40:15.186Z,49.79
2019-02-25T13:42:42.278Z,49.79
2019-02-25T13:45:10.545Z,50.05
2019-02-25T13:47:37.614Z,50.06
2019-02-25T13:50:05.003Z,49.83
2019-02-25T13:52:32.073Z,49.81
2019-02-25T13:54:59.140Z,49.16
2019-02-25T13:57:26.197Z,49.24
2019-02-25T13:59:53.317Z,49.29
2019-02-25T14:02:23.128Z,49.32
2019-02-25T14:04:50.299Z,49.62
2019-02-25T14:07:17.612Z,49.56
2019-02-25T14:09:44.790Z,49.58
2019-02-25T14:12:12.074Z,49.33
2019-02-25T14:14:39.142Z,48.94
2019-02-25T14:17:06.216Z,48.55
2019-02-25T14:19:33.272Z,48.78
2019-02-25T14:22:00.443Z,48.95
2019-02-25T14:24:27.824Z,49.24
2019-02-25T14:26:54.989Z,48.87
2019-02-25T14:29:26.196Z,49.21
2019-02-25T14:31:51.214Z,48.45
2019-02-25T14:34:18.520Z,48.46
2019-02-25T14:36:46.480Z,48.85
2019-02-25T14:39:24.951Z,49.19
2019-02-25T14:41:48.663Z,49.48
2019-02-25T14:44:15.730Z,49.50
2019-02-25T14:46:42.803Z,49.57
2019-02-25T14:49:09.881Z,49.68
2019-02-25T14:51:36.955Z,49.95
2019-02-25T14:54:04.062Z,50.16
2019-02-25T14:56:31.418Z,50.36
2019-02-25T14:59:00.633Z,50.27
2019-02-25T15:01:28.114Z,50.27
2019-02-25T15:03:58.085Z,50.21
2019-02-25T15:06:25.853Z,50.25
2019-02-25T15:08:54.391Z,50.37
2019-02-25T15:11:21.758Z,50.42
2019-02-25T15:13:48.844Z,50.54
2019-02-25T15:16:15.909Z,50.70
2019-02-25T15:18:42.987Z,50.69
2019-02-25T15:21:11.307Z,50.82
2019-02-25T15:23:39.114Z,50.97
2019-02-25T15:26:07.080Z,50.65
2019-02-25T15:28:34.448Z,50.83
2019-02-25T15:31:02.186Z,51.02
2019-02-25T15:33:31.549Z,51.14
2019-02-25T15:36:01.336Z,51.18
2019-02-25T15:38:29.085Z,51.32
2019-02-25T15:40:58.052Z,51.49
2019-02-25T15:43:29.936Z,51.63
2019-02-25T15:45:55.669Z,51.78
2019-02-25T15:48:22.735Z,51.92
2019-02-25T15:50:53.045Z,51.98
2019-02-25T15:53:21.532Z,52.16
2019-02-25T15:55:48.601Z,52.30
2019-02-25T15:58:16.357Z,52.47
2019-02-25T16:00:44.232Z,52.63
2019-02-25T16:03:13.499Z,52.79
2019-02-25T16:05:40.275Z,52.92
2019-02-25T16:08:09.811Z,53.07
2019-02-25T16:10:36.970Z,53.19
2019-02-25T16:13:08.363Z,53.30
2019-02-25T16:15:33.505Z,53.40
2019-02-25T16:18:02.344Z,53.51
2019-02-25T16:20:32.233Z,53.65
2019-02-25T16:23:00.455Z,53.83
2019-02-25T16:25:29.420Z,53.92
2019-02-25T16:27:56.731Z,53.95
2019-02-25T16:30:25.762Z,54.07
2019-02-25T16:32:52.751Z,54.16
2019-02-25T16:35:21.036Z,54.16
2019-02-25T16:37:48.601Z,54.24
2019-02-25T16:40:17.440Z,54.28
2019-02-25T16:42:44.910Z,54.37
2019-02-25T16:45:16.415Z,54.51
2019-02-25T16:47:43.585Z,54.60
2019-02-25T16:50:12.543Z,54.72
2019-02-25T16:52:42.405Z,54.90
2019-02-25T16:55:10.763Z,55.01
2019-02-25T16:57:39.201Z,55.10
2019-02-25T17:00:10.630Z,55.22
2019-02-25T17:02:38.476Z,55.27
2019-02-25T17:05:07.063Z,55.26
2019-02-25T17:07:34.442Z,55.28
2019-02-25T17:10:03.215Z,55.28
2019-02-25T17:12:31.714Z,55.41
2019-02-25T17:14:58.884Z,55.44
2019-02-25T17:17:25.937Z,55.50
2019-02-25T17:19:54.102Z,55.46
2019-02-25T17:22:21.851Z,55.42
2019-02-25T17:24:52.450Z,55.41
2019-02-25T17:27:22.496Z,55.44
2019-02-25T17:29:51.158Z,55.50
2019-02-25T17:32:19.367Z,55.45
2019-02-25T17:34:47.610Z,55.49
2019-02-25T17:37:15.392Z,55.49
2019-02-25T17:39:44.787Z,55.55
2019-02-25T17:42:13.311Z,55.46
2019-02-25T17:44:43.548Z,55.41
2019-02-25T17:47:11.439Z,55.41
2019-02-25T17:49:40.580Z,55.30
2019-02-25T17:52:08.673Z,55.15
2019-02-25T17:54:39.986Z,55.01
2019-02-25T17:57:08.052Z,54.92
2019-02-25T17:59:36.312Z,54.81
2019-02-25T18:02:04.557Z,54.71
2019-02-25T18:04:34.615Z,54.67
2019-02-25T18:07:01.542Z,54.50
2019-02-25T18:09:28.630Z,54.32
2019-02-25T18:11:55.761Z,54.27
2019-02-25T18:14:24.540Z,54.17
2019-02-25T18:16:51.601Z,53.99
2019-02-25T18:19:20.848Z,53.81
2019-02-25T18:21:48.116Z,53.63
2019-02-25T18:24:15.181Z,53.71
2019-02-25T18:26:44.477Z,53.47
2019-02-25T18:29:18.043Z,53.40
2019-02-25T18:31:45.198Z,53.34
2019-02-25T18:34:12.990Z,53.36
2019-02-25T18:36:40.848Z,53.26
2019-02-25T18:39:13.198Z,53.21
2019-02-25T18:41:43.088Z,53.04
2019-02-25T18:44:13.912Z,53.01
2019-02-25T18:46:43.907Z,52.95
2019-02-25T18:49:13.329Z,52.87
2019-02-25T18:51:40.429Z,52.77
2019-02-25T18:54:09.480Z,52.81
2019-02-25T18:56:38.125Z,52.75
2019-02-25T18:59:09.563Z,52.76
2019-02-25T19:01:34.721Z,52.69
2019-02-25T19:04:03.586Z,52.63
2019-02-25T19:06:30.648Z,52.39
2019-02-25T19:09:00.619Z,52.53
2019-02-25T19:11:30.705Z,52.41
2019-02-25T19:14:01.811Z,52.39
2019-02-25T19:16:29.946Z,52.23
2019-02-25T19:18:57.010Z,51.84
2019-02-25T19:21:25.494Z,51.75
2019-02-25T19:23:53.203Z,51.61
2019-02-25T19:26:21.906Z,51.21
2019-02-25T19:28:50.139Z,50.95
2019-02-25T19:31:21.089Z,51.00
2019-02-25T19:33:48.157Z,51.14
2019-02-25T19:36:15.727Z,50.75
2019-02-25T19:38:44.121Z,50.70
2019-02-25T19:41:15.127Z,50.41
2019-02-25T19:43:40.795Z,50.05
2019-02-25T19:46:08.722Z,50.12
2019-02-25T19:48:36.927Z,50.06
2019-02-25T19:51:06.110Z,50.00
2019-02-25T19:53:35.818Z,50.22
2019-02-25T19:56:02.181Z,50.05
2019-02-25T19:58:31.675Z,50.01
2019-02-25T20:01:01.041Z,50.10
2019-02-25T20:03:28.939Z,50.15
2019-02-25T20:05:57.303Z,49.96
2019-02-25T20:08:24.375Z,50.20
2019-02-25T20:10:54.307Z,50.10
2019-02-25T20:13:22.221Z,50.31
2019-02-25T20:15:51.143Z,50.29
2019-02-25T20:18:18.886Z,50.24
2019-02-25T20:20:46.273Z,50.18
2019-02-25T20:23:13.340Z,50.44
2019-02-25T20:25:42.418Z,50.30
2019-02-25T20:28:09.487Z,50.51
2019-02-25T20:30:36.761Z,50.60
2019-02-25T20:33:06.258Z,50.62
2019-02-25T20:35:32.807Z,50.58
2019-02-25T20:38:00.489Z,50.72
2019-02-25T20:40:30.527Z,50.80
2019-02-25T20:42:58.765Z,51.05
2019-02-25T20:45:27.742Z,51.20
2019-02-25T20:47:57.217Z,51.40
2019-02-25T20:50:24.894Z,51.17
2019-02-25T20:52:51.940Z,51.24
2019-02-25T20:55:19.042Z,51.35
2019-02-25T20:57:46.104Z,51.46
2019-02-25T21:00:15.928Z,51.50
2019-02-25T21:02:44.254Z,51.67
2019-02-25T21:05:13.903Z,51.73
2019-02-25T21:07:40.290Z,51.71
2019-02-25T21:10:08.791Z,51.64
2019-02-25T21:12:35.852Z,51.81
2019-02-25T21:15:03.578Z,51.96
2019-02-25T21:17:32.785Z,52.02
2019-02-25T21:20:00.328Z,52.02
2019-02-25T21:22:29.569Z,52.17
2019-02-25T21:24:58.110Z,52.27
2019-02-25T21:27:30.198Z,52.45
2019-02-25T21:29:57.322Z,52.63
2019-02-25T21:32:26.325Z,52.68
2019-02-25T21:34:55.900Z,52.81
2019-02-25T21:37:29.309Z,52.85
2019-02-25T21:39:58.213Z,52.87
2019-02-25T21:42:26.836Z,52.72
2019-02-25T21:44:56.913Z,52.61
2019-02-25T21:47:24.637Z,52.74
2019-02-25T21:49:54.990Z,52.78
2019-02-25T21:52:23.877Z,52.71
2019-02-25T21:54:50.953Z,52.66
2019-02-25T21:57:20.220Z,52.62
2019-02-25T21:59:47.294Z,52.65
2019-02-25T22:02:14.361Z,52.71
2019-02-25T22:04:43.048Z,52.74
2019-02-25T22:07:10.503Z,52.79
2019-02-25T22:09:41.333Z,52.81
2019-02-25T22:12:06.578Z,52.91
2019-02-25T22:14:35.461Z,53.05
2019-02-25T22:17:02.583Z,53.13
2019-02-25T22:19:29.681Z,53.19
2019-02-25T22:21:58.003Z,53.30
2019-02-25T22:24:29.092Z,53.39
2019-02-25T22:26:56.302Z,53.44
2019-02-25T22:29:23.789Z,53.38
2019-02-25T22:31:50.906Z,53.45
2019-02-25T22:34:20.033Z,53.53
2019-02-25T22:36:48.644Z,53.65
2019-02-25T22:39:15.974Z,53.62
2019-02-25T22:41:44.536Z,53.59
2019-02-25T22:44:12.105Z,53.63
2019-02-25T22:46:41.252Z,53.73
2019-02-25T22:49:09.464Z,53.85
2019-02-25T22:51:37.417Z,53.93
2019-02-25T22:54:06.160Z,53.97
2019-02-25T22:56:34.900Z,54.04
2019-02-25T22:59:02.798Z,54.04
2019-02-25T23:01:30.961Z,54.02
2019-02-25T23:03:58.123Z,54.05
2019-02-25T23:06:25.427Z,54.04
2019-02-25T23:08:53.437Z,53.98
2019-02-25T23:11:23.754Z,53.98
2019-02-25T23:13:52.431Z,54.02
2019-02-25T23:16:22.169Z,54.09
2019-02-25T23:18:50.580Z,54.26
2019-02-25T23:21:23.991Z,54.41
2019-02-25T23:23:46.661Z,54.61
2019-02-25T23:26:14.792Z,54.91
2019-02-25T23:28:42.742Z,55.06
2019-02-25T23:31:09.832Z,55.18
2019-02-25T23:33:40.191Z,55.33
2019-02-25T23:36:05.940Z,55.53
2019-02-25T23:38:33.067Z,55.69
2019-02-25T23:41:03.284Z,55.82
2019-02-25T23:43:31.349Z,55.91
2019-02-25T23:46:00.070Z,55.91
2019-02-25T23:48:32.803Z,56.03
2019-02-25T23:50:57.773Z,56.12
2019-02-25T23:53:26.613Z,56.23
2019-02-25T23:55:54.772Z,56.40
2019-02-25T23:58:24.096Z,56.57
